Time;durP1;ratioP1;P1;durP2;ratioP2;P2;SDS_P1;SDS_P2;PMS_P1;PMS_P2;Temp;Humidity;BMP_temperature;BMP_pressure;BME280_temperature;BME280_humidity;BME280_pressure;Samples;Min_cycle;Max_cycle;Signal;HPM_P1;HPM_P2
2023/08/17 00:02:57;;;;;;;2.75;1.67;;;;;;;;;;6284479;28;20575;-70
2023/08/17 00:06:01;;;;;;;2.60;1.67;;;;;;;;;;6283655;28;20467;-70
2023/08/17 00:09:06;;;;;;;3.70;1.70;;;;;;;;;;6283960;28;20295;-71
2023/08/17 00:12:10;;;;;;;13.52;2.30;;;;;;;;;;6284390;28;20287;-70
2023/08/17 00:15:13;;;;;;;7.40;1.88;;;;;;;;;;6283788;28;20370;-70
2023/08/17 00:18:18;;;;;;;9.80;1.70;;;;;;;;;;6284286;28;20453;-71
2023/08/17 00:21:22;;;;;;;4.38;1.98;;;;;;;;;;6283405;28;20299;-70
2023/08/17 00:24:26;;;;;;;5.53;1.63;;;;;;;;;;6283688;28;20544;-70
2023/08/17 00:27:30;;;;;;;1.65;1.60;;;;;;;;;;6284073;28;20290;-71
2023/08/17 00:30:36;;;;;;;2.50;1.67;;;;;;;;;;6283027;28;20433;-71
2023/08/17 00:33:41;;;;;;;4.78;1.60;;;;;;;;;;6283577;28;20255;-70
2023/08/17 00:36:45;;;;;;;7.78;1.88;;;;;;;;;;6284382;28;20248;-71
2023/08/17 00:39:49;;;;;;;15.80;2.03;;;;;;;;;;6283586;28;20295;-70
2023/08/17 00:42:52;;;;;;;6.80;1.58;;;;;;;;;;6284114;28;20290;-71
2023/08/17 00:45:56;;;;;;;12.13;2.15;;;;;;;;;;6282064;28;20287;-70
2023/08/17 00:49:01;;;;;;;4.38;1.90;;;;;;;;;;6282492;28;20291;-70
2023/08/17 00:52:06;;;;;;;17.83;2.08;;;;;;;;;;6284401;28;20444;-69
2023/08/17 00:55:12;;;;;;;6.18;1.60;;;;;;;;;;6283345;28;20291;-70
2023/08/17 00:58:16;;;;;;;3.50;1.42;;;;;;;;;;6283668;28;20454;-71
2023/08/17 01:01:20;;;;;;;3.35;1.63;;;;;;;;;;6281887;28;20303;-70
2023/08/17 01:04:26;;;;;;;2.22;1.67;;;;;;;;;;6282948;28;20295;-69
2023/08/17 01:07:29;;;;;;;5.57;1.80;;;;;;;;;;6284729;28;20488;-70
2023/08/17 01:10:42;;;;;;;1.63;1.30;;;;;;;;;;6286128;28;20311;-69
2023/08/17 01:13:52;;;;;;;4.70;1.67;;;;;;;;;;6286220;28;20291;-71
2023/08/17 01:17:01;;;;;;;3.53;1.80;;;;;;;;;;6287921;28;20298;-69
2023/08/17 01:20:09;;;;;;;4.05;1.60;;;;;;;;;;6286044;28;20295;-70
2023/08/17 01:23:14;;;;;;;3.28;1.73;;;;;;;;;;6288015;28;20290;-70
2023/08/17 01:26:18;;;;;;;2.72;1.63;;;;;;;;;;6287418;28;20299;-69
2023/08/17 01:29:22;;;;;;;8.20;1.50;;;;;;;;;;6287260;28;20286;-70
2023/08/17 01:32:31;;;;;;;5.88;1.70;;;;;;;;;;6287598;28;20474;-70
2023/08/17 01:35:39;;;;;;;8.48;1.90;;;;;;;;;;6286364;28;20298;-71
2023/08/17 01:38:45;;;;;;;6.03;1.80;;;;;;;;;;6285707;28;20454;-70
2023/08/17 01:41:49;;;;;;;3.25;1.65;;;;;;;;;;6287754;28;20298;-70
2023/08/17 01:44:53;;;;;;;8.55;1.75;;;;;;;;;;6286983;28;20295;-70
2023/08/17 01:47:58;;;;;;;2.15;1.60;;;;;;;;;;6285530;28;20302;-70
2023/08/17 01:51:01;;;;;;;5.40;1.60;;;;;;;;;;6286883;28;20298;-70
2023/08/17 01:54:07;;;;;;;2.13;1.70;;;;;;;;;;6287292;28;20547;-70
2023/08/17 01:57:11;;;;;;;2.05;1.60;;;;;;;;;;6285394;28;20291;-70
2023/08/17 02:00:16;;;;;;;3.05;1.55;;;;;;;;;;6285016;28;20307;-71
2023/08/17 02:03:20;;;;;;;4.40;2.00;;;;;;;;;;6287366;28;20303;-70
2023/08/17 02:06:24;;;;;;;1.95;1.42;;;;;;;;;;6285007;28;20294;-70
2023/08/17 02:09:29;;;;;;;3.60;1.73;;;;;;;;;;6286324;28;20470;-70
2023/08/17 02:12:33;;;;;;;1.60;1.60;;;;;;;;;;6276377;28;20283;-71
2023/08/17 02:15:39;;;;;;;1.88;1.77;;;;;;;;;;6284670;28;20343;-70
2023/08/17 02:18:43;;;;;;;5.95;1.52;;;;;;;;;;6284887;28;20298;-70
2023/08/17 02:21:47;;;;;;;1.77;1.30;;;;;;;;;;6286157;28;20267;-70
2023/08/17 02:24:52;;;;;;;1.60;1.50;;;;;;;;;;6285728;28;20295;-70
2023/08/17 02:27:57;;;;;;;1.95;1.30;;;;;;;;;;6285228;28;20333;-70
2023/08/17 02:31:02;;;;;;;2.50;1.50;;;;;;;;;;6285439;28;20302;-70
2023/08/17 02:34:06;;;;;;;1.65;1.40;;;;;;;;;;6285229;28;20317;-71
2023/08/17 02:37:10;;;;;;;1.88;1.40;;;;;;;;;;6285975;28;20295;-71
2023/08/17 02:40:15;;;;;;;7.88;1.60;;;;;;;;;;6275636;28;20448;-72
2023/08/17 02:43:19;;;;;;;2.22;1.65;;;;;;;;;;6284893;28;20302;-70
2023/08/17 02:46:23;;;;;;;1.60;1.50;;;;;;;;;;6285731;28;20567;-70
2023/08/17 02:49:27;;;;;;;1.75;1.45;;;;;;;;;;6285045;28;20307;-70
2023/08/17 02:52:32;;;;;;;1.88;1.70;;;;;;;;;;6285817;28;20354;-70
2023/08/17 02:55:37;;;;;;;2.42;1.38;;;;;;;;;;6284215;28;20315;-71
2023/08/17 02:58:41;;;;;;;1.83;1.70;;;;;;;;;;6283844;28;20537;-71
2023/08/17 03:01:46;;;;;;;1.70;1.50;;;;;;;;;;6283492;28;20295;-69
2023/08/17 03:04:50;;;;;;;2.95;1.65;;;;;;;;;;6265499;28;20452;-70
2023/08/17 03:07:53;;;;;;;1.55;1.50;;;;;;;;;;6292585;28;20291;-71
2023/08/17 03:10:59;;;;;;;1.63;1.45;;;;;;;;;;6272085;28;20308;-70
2023/08/17 03:14:02;;;;;;;1.88;1.42;;;;;;;;;;6259871;28;20308;-70
2023/08/17 03:17:06;;;;;;;2.47;1.60;;;;;;;;;;6260026;28;20320;-71
2023/08/17 03:20:11;;;;;;;3.40;1.58;;;;;;;;;;6258716;28;20308;-70
2023/08/17 03:23:16;;;;;;;2.03;1.83;;;;;;;;;;6259706;28;20287;-70
2023/08/17 03:26:22;;;;;;;2.20;1.70;;;;;;;;;;6258861;28;20287;-70
2023/08/17 03:29:26;;;;;;;5.18;1.67;;;;;;;;;;6257409;28;20593;-70
2023/08/17 03:32:31;;;;;;;1.30;1.30;;;;;;;;;;6258826;28;20299;-69
2023/08/17 03:35:35;;;;;;;1.40;1.40;;;;;;;;;;6258244;28;20296;-70
2023/08/17 03:38:39;;;;;;;1.98;1.50;;;;;;;;;;6258523;28;20291;-71
2023/08/17 03:41:44;;;;;;;1.77;1.70;;;;;;;;;;6259960;28;20315;-69
2023/08/17 03:44:48;;;;;;;2.90;1.48;;;;;;;;;;6258677;28;20295;-69
2023/08/17 03:47:52;;;;;;;1.95;1.77;;;;;;;;;;6259588;28;20299;-70
2023/08/17 03:50:57;;;;;;;4.10;1.88;;;;;;;;;;6258533;28;20299;-70
2023/08/17 03:54:01;;;;;;;1.40;1.40;;;;;;;;;;6259167;28;20315;-70
2023/08/17 03:57:06;;;;;;;1.45;1.45;;;;;;;;;;6259745;28;20315;-70
2023/08/17 04:00:11;;;;;;;3.33;1.60;;;;;;;;;;6258331;28;20300;-70
2023/08/17 04:03:18;;;;;;;1.70;1.70;;;;;;;;;;6259627;28;20307;-70
2023/08/17 04:06:22;;;;;;;1.65;1.60;;;;;;;;;;6259461;28;20312;-70
2023/08/17 04:09:26;;;;;;;3.30;1.58;;;;;;;;;;6258067;28;20303;-70
2023/08/17 04:12:31;;;;;;;3.08;1.70;;;;;;;;;;6259539;28;20295;-70
2023/08/17 04:15:35;;;;;;;9.43;1.85;;;;;;;;;;6281904;28;20300;-70
2023/08/17 04:18:38;;;;;;;1.63;1.52;;;;;;;;;;6282459;28;20315;-70
2023/08/17 04:21:42;;;;;;;1.70;1.40;;;;;;;;;;6316412;28;20290;-69
2023/08/17 04:24:46;;;;;;;1.40;1.40;;;;;;;;;;6282605;28;20481;-70
2023/08/17 04:27:52;;;;;;;1.55;1.55;;;;;;;;;;6282542;28;20263;-70
2023/08/17 04:30:56;;;;;;;1.70;1.55;;;;;;;;;;6316304;28;20290;-70
2023/08/17 04:34:00;;;;;;;1.92;1.83;;;;;;;;;;6272015;28;20296;-70
2023/08/17 04:37:04;;;;;;;1.52;1.50;;;;;;;;;;6291111;28;20575;-70
2023/08/17 04:40:09;;;;;;;1.70;1.60;;;;;;;;;;6273190;28;20299;-72
2023/08/17 04:43:15;;;;;;;1.88;1.77;;;;;;;;;;6265277;28;20310;-70
2023/08/17 04:46:19;;;;;;;9.50;1.67;;;;;;;;;;6281200;28;20291;-71
2023/08/17 04:49:23;;;;;;;2.45;1.65;;;;;;;;;;6302123;28;20296;-71
2023/08/17 04:52:27;;;;;;;1.70;1.67;;;;;;;;;;6264237;28;20296;-70
2023/08/17 04:55:31;;;;;;;1.70;1.60;;;;;;;;;;6276473;28;20303;-70
2023/08/17 04:58:37;;;;;;;3.67;1.45;;;;;;;;;;6268928;28;20527;-70
2023/08/17 05:01:41;;;;;;;2.58;1.73;;;;;;;;;;6277003;28;20564;-72
2023/08/17 05:04:47;;;;;;;2.08;1.95;;;;;;;;;;6269491;28;20303;-71
2023/08/17 05:07:51;;;;;;;1.55;1.45;;;;;;;;;;6263224;28;20291;-69
2023/08/17 05:10:55;;;;;;;3.33;2.00;;;;;;;;;;6276357;28;20592;-71
2023/08/17 05:14:02;;;;;;;2.20;1.80;;;;;;;;;;6306014;28;20290;-72
2023/08/17 05:17:07;;;;;;;3.40;1.75;;;;;;;;;;6287103;28;20505;-70
2023/08/17 05:20:13;;;;;;;4.32;2.03;;;;;;;;;;6320263;28;20291;-71
2023/08/17 05:23:16;;;;;;;2.05;1.95;;;;;;;;;;6288095;28;20599;-71
2023/08/17 05:26:21;;;;;;;1.80;1.70;;;;;;;;;;6286939;28;20307;-71
2023/08/17 05:29:27;;;;;;;1.50;1.50;;;;;;;;;;6274529;28;20292;-70
2023/08/17 05:32:31;;;;;;;1.83;1.75;;;;;;;;;;6278875;28;20291;-71
2023/08/17 05:35:35;;;;;;;5.55;2.13;;;;;;;;;;6262965;28;20307;-71
2023/08/17 05:38:39;;;;;;;2.85;1.60;;;;;;;;;;6268304;28;20294;-70
2023/08/17 05:41:42;;;;;;;1.85;1.73;;;;;;;;;;6268866;28;20299;-71
2023/08/17 05:44:48;;;;;;;1.85;1.75;;;;;;;;;;6277562;28;20294;-70
2023/08/17 05:47:53;;;;;;;2.22;2.10;;;;;;;;;;6268872;28;20292;-71
2023/08/17 05:50:57;;;;;;;2.13;1.80;;;;;;;;;;6267778;28;20295;-72
2023/08/17 05:54:01;;;;;;;2.03;1.90;;;;;;;;;;6271308;28;20283;-70
2023/08/17 05:57:05;;;;;;;1.73;1.73;;;;;;;;;;6266316;28;20295;-71
2023/08/17 06:00:12;;;;;;;2.00;1.90;;;;;;;;;;6281719;28;20491;-71
2023/08/17 06:03:18;;;;;;;1.88;1.77;;;;;;;;;;6267759;28;20536;-71
2023/08/17 06:06:22;;;;;;;3.95;1.80;;;;;;;;;;6264021;28;20295;-71
2023/08/17 06:09:26;;;;;;;2.25;1.73;;;;;;;;;;6274337;28;20298;-71
2023/08/17 06:12:30;;;;;;;1.80;1.77;;;;;;;;;;6262483;28;20291;-71
2023/08/17 06:15:35;;;;;;;1.98;1.80;;;;;;;;;;6286235;28;20295;-71
2023/08/17 06:18:39;;;;;;;1.60;1.50;;;;;;;;;;6286715;28;20295;-71
2023/08/17 06:21:43;;;;;;;1.95;1.90;;;;;;;;;;6287059;28;20262;-71
2023/08/17 06:24:47;;;;;;;1.85;1.80;;;;;;;;;;6272110;28;20299;-71
2023/08/17 06:27:51;;;;;;;1.73;1.73;;;;;;;;;;6285072;28;20520;-71
2023/08/17 06:30:56;;;;;;;2.30;2.00;;;;;;;;;;6264542;28;20291;-71
2023/08/17 06:34:00;;;;;;;3.55;1.90;;;;;;;;;;6276429;28;20588;-71
2023/08/17 06:37:05;;;;;;;2.22;1.90;;;;;;;;;;6263557;28;20292;-72
2023/08/17 06:40:10;;;;;;;2.28;1.80;;;;;;;;;;6274783;28;20295;-70
2023/08/17 06:43:13;;;;;;;7.40;1.90;;;;;;;;;;6264936;28;20290;-72
2023/08/17 06:46:22;;;;;;;2.15;1.95;;;;;;;;;;6279620;28;20304;-70
2023/08/17 06:49:27;;;;;;;2.63;2.08;;;;;;;;;;6267580;28;20584;-71
2023/08/17 06:52:31;;;;;;;2.50;1.70;;;;;;;;;;6261222;28;20584;-72
2023/08/17 06:55:35;;;;;;;3.13;1.80;;;;;;;;;;6275524;28;20299;-72
2023/08/17 06:58:38;;;;;;;1.90;1.80;;;;;;;;;;6267894;28;20575;-72
2023/08/17 07:01:43;;;;;;;2.60;1.80;;;;;;;;;;6276363;28;20287;-73
2023/08/17 07:04:47;;;;;;;1.90;1.80;;;;;;;;;;6266889;28;20437;-72
2023/08/17 07:07:52;;;;;;;1.73;1.73;;;;;;;;;;6260974;28;20291;-73
2023/08/17 07:10:56;;;;;;;3.70;2.20;;;;;;;;;;6274174;28;20295;-72
2023/08/17 07:14:00;;;;;;;2.15;1.80;;;;;;;;;;6270871;28;20290;-72
2023/08/17 07:17:05;;;;;;;1.95;1.85;;;;;;;;;;6317887;28;20286;-72
2023/08/17 07:20:11;;;;;;;2.03;1.92;;;;;;;;;;6279290;28;20567;-73
2023/08/17 07:23:19;;;;;;;4.60;2.17;;;;;;;;;;6285173;28;20291;-73
2023/08/17 07:26:23;;;;;;;2.20;1.98;;;;;;;;;;6285318;28;20366;-74
2023/08/17 07:29:27;;;;;;;2.78;2.10;;;;;;;;;;6284916;28;20531;-73
2023/08/17 07:32:32;;;;;;;2.58;1.95;;;;;;;;;;6285174;28;20290;-72
2023/08/17 07:35:36;;;;;;;2.78;1.90;;;;;;;;;;6284442;28;20314;-72
2023/08/17 07:38:40;;;;;;;3.30;2.00;;;;;;;;;;6284933;28;20619;-72
2023/08/17 07:41:44;;;;;;;3.72;1.98;;;;;;;;;;6285477;28;20457;-72
2023/08/17 07:44:48;;;;;;;2.05;1.88;;;;;;;;;;6284666;28;20302;-71
2023/08/17 07:47:53;;;;;;;1.70;1.70;;;;;;;;;;6276941;28;20600;-73
2023/08/17 07:50:57;;;;;;;1.77;1.77;;;;;;;;;;6260507;28;20292;-70
2023/08/17 07:54:01;;;;;;;3.30;1.77;;;;;;;;;;6260014;28;20279;-70
2023/08/17 07:57:05;;;;;;;2.03;1.85;;;;;;;;;;6260693;28;20296;-70
2023/08/17 08:00:09;;;;;;;4.22;2.28;;;;;;;;;;6260273;28;20299;-70
2023/08/17 08:03:16;;;;;;;5.30;2.33;;;;;;;;;;6261579;28;20462;-69
2023/08/17 08:06:21;;;;;;;2.05;1.90;;;;;;;;;;6260583;28;20296;-68
2023/08/17 08:09:25;;;;;;;1.67;1.50;;;;;;;;;;6292062;28;20541;-71
2023/08/17 08:12:29;;;;;;;3.60;2.00;;;;;;;;;;6283558;28;20299;-72
2023/08/17 08:15:34;;;;;;;1.95;1.83;;;;;;;;;;6283353;28;20310;-69
2023/08/17 08:18:39;;;;;;;1.70;1.60;;;;;;;;;;6289771;28;20303;-70
2023/08/17 08:21:43;;;;;;;1.73;1.63;;;;;;;;;;6290147;28;20252;-70
2023/08/17 08:24:46;;;;;;;1.73;1.65;;;;;;;;;;6288546;28;20295;-69
2023/08/17 08:27:50;;;;;;;1.83;1.63;;;;;;;;;;6288998;28;20235;-69
2023/08/17 08:30:54;;;;;;;1.60;1.48;;;;;;;;;;6268309;28;20291;-70
2023/08/17 08:33:59;;;;;;;2.08;1.85;;;;;;;;;;6289028;28;20286;-69
2023/08/17 08:37:03;;;;;;;4.53;1.60;;;;;;;;;;6289710;28;20294;-70
2023/08/17 08:40:12;;;;;;;1.60;1.50;;;;;;;;;;6288921;28;20322;-69
2023/08/17 08:43:16;;;;;;;3.60;2.00;;;;;;;;;;6289092;28;20459;-70
2023/08/17 08:46:21;;;;;;;2.00;1.83;;;;;;;;;;6289472;28;20303;-71
2023/08/17 08:49:28;;;;;;;2.10;2.00;;;;;;;;;;6289400;28;20293;-71
2023/08/17 08:52:35;;;;;;;3.38;1.50;;;;;;;;;;6289305;28;20295;-70
2023/08/17 08:55:40;;;;;;;1.80;1.80;;;;;;;;;;6289006;28;20348;-70
2023/08/17 08:58:48;;;;;;;3.38;2.08;;;;;;;;;;6289121;28;20296;-70
2023/08/17 09:01:58;;;;;;;1.65;1.65;;;;;;;;;;6289204;28;20299;-69
2023/08/17 09:05:06;;;;;;;3.05;2.08;;;;;;;;;;6288590;28;20472;-70
2023/08/17 09:08:11;;;;;;;2.30;2.10;;;;;;;;;;6287760;28;20468;-69
2023/08/17 09:11:20;;;;;;;2.05;1.95;;;;;;;;;;6288505;28;20325;-69
2023/08/17 09:14:24;;;;;;;2.17;2.15;;;;;;;;;;6274730;28;20299;-70
2023/08/17 09:17:28;;;;;;;2.22;2.15;;;;;;;;;;6279845;28;20498;-70
2023/08/17 09:20:45;;;;;;;3.30;2.08;;;;;;;;;;6281885;28;20294;-70
2023/08/17 09:23:53;;;;;;;2.13;1.95;;;;;;;;;;6278142;28;20292;-71
2023/08/17 09:27:02;;;;;;;2.65;1.70;;;;;;;;;;6285210;28;20391;-73
2023/08/17 09:30:08;;;;;;;3.75;1.90;;;;;;;;;;6269954;28;20292;-70
2023/08/17 09:33:11;;;;;;;2.00;1.90;;;;;;;;;;6280772;28;20292;-70
2023/08/17 09:36:21;;;;;;;1.75;1.75;;;;;;;;;;6262908;28;20320;-71
2023/08/17 09:39:25;;;;;;;2.10;2.00;;;;;;;;;;6275694;28;20555;-70
2023/08/17 09:42:29;;;;;;;2.10;1.95;;;;;;;;;;6263522;28;20304;-70
2023/08/17 09:45:32;;;;;;;1.92;1.80;;;;;;;;;;6284321;28;20308;-71
2023/08/17 09:48:37;;;;;;;1.85;1.85;;;;;;;;;;6268350;28;20299;-70
2023/08/17 09:51:44;;;;;;;2.15;2.10;;;;;;;;;;6263112;28;20249;-70
2023/08/17 09:54:49;;;;;;;2.47;2.30;;;;;;;;;;6276558;28;20294;-70
2023/08/17 09:57:53;;;;;;;3.60;1.90;;;;;;;;;;6262205;28;20576;-70
2023/08/17 10:00:57;;;;;;;4.60;2.20;;;;;;;;;;6283921;28;20291;-70
2023/08/17 10:04:02;;;;;;;1.90;1.90;;;;;;;;;;6268086;28;20291;-70
2023/08/17 10:07:08;;;;;;;1.80;1.80;;;;;;;;;;6294520;28;20291;-69
2023/08/17 10:10:13;;;;;;;1.77;1.73;;;;;;;;;;6275964;28;20296;-70
2023/08/17 10:13:22;;;;;;;2.47;1.85;;;;;;;;;;6297754;28;20295;-69
2023/08/17 10:16:30;;;;;;;2.00;1.88;;;;;;;;;;6286095;28;20476;-70
2023/08/17 10:19:40;;;;;;;2.35;2.10;;;;;;;;;;6286415;28;20299;-70
2023/08/17 10:22:50;;;;;;;4.25;3.03;;;;;;;;;;6286909;28;20295;-69
2023/08/17 10:25:53;;;;;;;5.45;2.78;;;;;;;;;;6285905;28;20295;-71
2023/08/17 10:29:01;;;;;;;2.25;2.17;;;;;;;;;;6286250;28;20298;-68
2023/08/17 10:32:15;;;;;;;6.10;2.28;;;;;;;;;;6286987;28;20295;-70
2023/08/17 10:35:20;;;;;;;3.05;2.30;;;;;;;;;;6285719;28;20391;-70
2023/08/17 10:38:25;;;;;;;2.85;2.40;;;;;;;;;;6286299;28;20282;-70
2023/08/17 10:41:29;;;;;;;2.00;1.90;;;;;;;;;;6286386;28;20295;-70
2023/08/17 10:44:40;;;;;;;3.15;1.95;;;;;;;;;;6286259;28;20291;-70
2023/08/17 10:47:43;;;;;;;2.05;1.95;;;;;;;;;;6286441;28;20295;-70
2023/08/17 10:51:00;;;;;;;1.92;1.90;;;;;;;;;;6318527;28;20298;-71
2023/08/17 10:54:06;;;;;;;5.25;1.95;;;;;;;;;;6287259;28;20292;-72
2023/08/17 10:57:30;;;;;;;2.00;1.90;;;;;;;;;;6286645;28;20295;-71
2023/08/17 11:00:36;;;;;;;2.08;1.88;;;;;;;;;;6282500;28;20299;-70
2023/08/17 11:03:40;;;;;;;1.63;1.63;;;;;;;;;;6260568;28;20291;-70
2023/08/17 11:06:44;;;;;;;2.00;1.98;;;;;;;;;;6260857;28;20259;-70
2023/08/17 11:09:49;;;;;;;3.45;1.95;;;;;;;;;;6260383;28;20608;-70
2023/08/17 11:12:56;;;;;;;2.20;2.10;;;;;;;;;;6261258;28;20461;-70
2023/08/17 11:16:01;;;;;;;2.42;2.22;;;;;;;;;;6281697;28;20287;-71
2023/08/17 11:19:07;;;;;;;1.73;1.73;;;;;;;;;;6266188;28;20304;-71
2023/08/17 11:22:16;;;;;;;2.00;2.00;;;;;;;;;;6293082;28;20470;-70
2023/08/17 11:25:29;;;;;;;3.65;2.80;;;;;;;;;;6274404;28;20299;-70
2023/08/17 11:28:38;;;;;;;2.80;2.60;;;;;;;;;;6266556;28;20925;-69
2023/08/17 11:31:44;;;;;;;1.77;1.67;;;;;;;;;;6275164;28;20299;-69
2023/08/17 11:34:53;;;;;;;1.58;1.50;;;;;;;;;;6265516;28;20380;-70
2023/08/17 11:38:03;;;;;;;1.70;1.60;;;;;;;;;;6260369;28;20320;-70
2023/08/17 11:41:14;;;;;;;1.70;1.60;;;;;;;;;;6271492;28;20295;-70
2023/08/17 11:44:22;;;;;;;5.78;3.67;;;;;;;;;;6272281;28;20294;-70
2023/08/17 11:47:27;;;;;;;2.33;2.20;;;;;;;;;;6269225;28;20295;-71
2023/08/17 11:50:35;;;;;;;3.78;1.90;;;;;;;;;;6264733;28;20300;-69
2023/08/17 11:53:42;;;;;;;2.25;2.20;;;;;;;;;;6266855;28;20306;-69
2023/08/17 11:56:53;;;;;;;2.35;2.15;;;;;;;;;;6264171;28;20510;-70
2023/08/17 11:59:59;;;;;;;5.55;1.80;;;;;;;;;;6276970;28;20291;-71
2023/08/17 12:03:03;;;;;;;1.98;1.75;;;;;;;;;;6263918;28;20299;-70
2023/08/17 12:06:07;;;;;;;5.00;1.70;;;;;;;;;;6263370;28;20288;-70
2023/08/17 12:09:13;;;;;;;1.60;1.60;;;;;;;;;;6271137;28;20295;-70
2023/08/17 12:12:21;;;;;;;2.05;1.70;;;;;;;;;;6262071;28;20295;-74
2023/08/17 12:15:26;;;;;;;1.45;1.45;;;;;;;;;;6259712;28;20296;-71
2023/08/17 12:18:31;;;;;;;2.05;1.95;;;;;;;;;;6259763;28;20303;-70
2023/08/17 12:21:35;;;;;;;1.70;1.70;;;;;;;;;;6258813;28;20280;-70
2023/08/17 12:24:39;;;;;;;1.80;1.80;;;;;;;;;;6259491;28;20471;-71
2023/08/17 12:27:48;;;;;;;2.03;2.03;;;;;;;;;;6259477;28;20459;-70
2023/08/17 12:30:59;;;;;;;2.20;2.10;;;;;;;;;;6259481;28;20473;-71
2023/08/17 12:34:03;;;;;;;2.20;2.10;;;;;;;;;;6259073;28;20441;-70
2023/08/17 12:37:09;;;;;;;2.00;1.65;;;;;;;;;;6259945;28;20304;-70
2023/08/17 12:40:13;;;;;;;1.80;1.80;;;;;;;;;;6259188;28;20300;-70
2023/08/17 12:43:18;;;;;;;2.88;1.63;;;;;;;;;;6259135;28;20576;-71
2023/08/17 12:46:22;;;;;;;1.60;1.50;;;;;;;;;;6259732;28;20292;-70
2023/08/17 12:49:26;;;;;;;1.95;1.83;;;;;;;;;;6259051;28;20303;-70
2023/08/17 12:52:30;;;;;;;1.60;1.60;;;;;;;;;;6259331;28;20296;-70
2023/08/17 12:55:34;;;;;;;2.08;1.83;;;;;;;;;;6258987;28;20299;-70
2023/08/17 12:58:39;;;;;;;2.30;1.88;;;;;;;;;;6259198;28;20304;-69
2023/08/17 13:01:43;;;;;;;1.58;1.58;;;;;;;;;;6259361;28;20292;-70
2023/08/17 13:04:47;;;;;;;2.13;2.00;;;;;;;;;;6263565;28;20287;-69
2023/08/17 13:07:50;;;;;;;2.00;1.70;;;;;;;;;;6263165;28;20410;-71
2023/08/17 13:10:54;;;;;;;2.63;2.00;;;;;;;;;;6263718;28;20510;-70
2023/08/17 13:13:59;;;;;;;8.20;6.95;;;;;;;;;;6263388;28;20599;-70
2023/08/17 13:17:04;;;;;;;5.03;3.00;;;;;;;;;;6263913;28;20299;-70
2023/08/17 13:20:09;;;;;;;2.28;2.17;;;;;;;;;;6263254;28;20300;-70
2023/08/17 13:23:13;;;;;;;1.85;1.75;;;;;;;;;;6261724;28;20284;-70
2023/08/17 13:26:17;;;;;;;4.60;1.80;;;;;;;;;;6263600;28;20292;-71
2023/08/17 13:29:22;;;;;;;1.83;1.80;;;;;;;;;;6263021;28;20295;-72
2023/08/17 13:32:26;;;;;;;1.88;1.77;;;;;;;;;;6263379;28;20296;-70
2023/08/17 13:35:31;;;;;;;1.77;1.67;;;;;;;;;;6262114;28;20303;-70
2023/08/17 13:38:34;;;;;;;1.80;1.80;;;;;;;;;;6262661;28;20470;-72
2023/08/17 13:41:38;;;;;;;1.80;1.80;;;;;;;;;;6263335;28;20303;-70
2023/08/17 13:44:43;;;;;;;1.83;1.58;;;;;;;;;;6263303;28;20300;-70
2023/08/17 13:47:47;;;;;;;2.03;2.00;;;;;;;;;;6263556;28;20312;-70
2023/08/17 13:50:51;;;;;;;2.00;1.90;;;;;;;;;;6262087;28;20295;-70
2023/08/17 13:53:55;;;;;;;2.90;1.90;;;;;;;;;;6262537;28;20287;-70
2023/08/17 13:56:59;;;;;;;1.58;1.58;;;;;;;;;;6262094;28;20322;-69
2023/08/17 14:00:05;;;;;;;2.10;2.10;;;;;;;;;;6262318;28;20323;-70
2023/08/17 14:03:08;;;;;;;4.10;2.22;;;;;;;;;;6263362;28;20556;-70
2023/08/17 14:06:12;;;;;;;2.85;2.75;;;;;;;;;;6262626;28;20303;-70
2023/08/17 14:09:16;;;;;;;2.58;2.40;;;;;;;;;;6262201;28;20295;-69
2023/08/17 14:12:20;;;;;;;2.13;2.00;;;;;;;;;;6262217;28;20299;-71
2023/08/17 14:15:25;;;;;;;1.60;1.60;;;;;;;;;;6261428;28;20315;-69
2023/08/17 14:18:29;;;;;;;2.45;2.30;;;;;;;;;;6262130;28;20295;-70
2023/08/17 14:21:33;;;;;;;1.77;1.70;;;;;;;;;;6261444;28;20314;-70
2023/08/17 14:24:36;;;;;;;1.92;1.75;;;;;;;;;;6261768;28;20296;-70
2023/08/17 14:27:40;;;;;;;3.13;2.10;;;;;;;;;;6262305;28;20244;-70
2023/08/17 14:30:46;;;;;;;2.13;2.00;;;;;;;;;;6262015;28;20295;-71
2023/08/17 14:33:55;;;;;;;2.25;1.67;;;;;;;;;;6261480;28;20319;-71
2023/08/17 14:36:59;;;;;;;1.63;1.58;;;;;;;;;;6261131;28;20461;-71
2023/08/17 14:40:03;;;;;;;1.77;1.77;;;;;;;;;;6261882;28;20316;-71
2023/08/17 14:43:06;;;;;;;1.80;1.70;;;;;;;;;;6261284;28;20302;-71
2023/08/17 14:46:12;;;;;;;2.15;1.83;;;;;;;;;;6261933;28;20287;-71
2023/08/17 14:49:18;;;;;;;3.80;1.60;;;;;;;;;;6261409;28;20323;-70
2023/08/17 14:52:22;;;;;;;1.77;1.77;;;;;;;;;;6261677;28;20308;-72
2023/08/17 14:55:25;;;;;;;1.80;1.80;;;;;;;;;;6261060;28;20356;-70
2023/08/17 14:58:29;;;;;;;1.73;1.63;;;;;;;;;;6260454;28;20372;-70
2023/08/17 15:01:35;;;;;;;3.40;1.85;;;;;;;;;;6261167;28;20295;-71
2023/08/17 15:04:39;;;;;;;1.80;1.70;;;;;;;;;;6261138;28;20595;-71
2023/08/17 15:07:42;;;;;;;2.10;1.60;;;;;;;;;;6261572;28;20315;-71
2023/08/17 15:10:48;;;;;;;2.17;2.00;;;;;;;;;;6260808;28;20390;-71
2023/08/17 15:13:52;;;;;;;2.53;2.17;;;;;;;;;;6260677;28;20287;-70
2023/08/17 15:16:57;;;;;;;2.30;1.67;;;;;;;;;;6261366;28;20485;-69
2023/08/17 15:20:01;;;;;;;1.73;1.63;;;;;;;;;;6260747;28;20295;-70
2023/08/17 15:23:06;;;;;;;4.07;2.05;;;;;;;;;;6260233;28;20299;-70
2023/08/17 15:26:10;;;;;;;2.25;2.05;;;;;;;;;;6260274;28;20299;-69
2023/08/17 15:29:14;;;;;;;3.85;1.85;;;;;;;;;;6259873;28;20295;-71
2023/08/17 15:32:19;;;;;;;2.30;2.00;;;;;;;;;;6260698;28;20296;-68
2023/08/17 15:35:23;;;;;;;2.45;2.25;;;;;;;;;;6260172;28;20303;-69
2023/08/17 15:38:27;;;;;;;2.75;2.30;;;;;;;;;;6260514;28;20588;-69
2023/08/17 15:41:31;;;;;;;2.30;2.20;;;;;;;;;;6259667;28;20299;-70
2023/08/17 15:44:35;;;;;;;2.28;2.17;;;;;;;;;;6260367;28;20291;-71
2023/08/17 15:47:40;;;;;;;1.95;1.80;;;;;;;;;;6259402;28;20331;-72
2023/08/17 15:50:44;;;;;;;2.05;1.95;;;;;;;;;;6260428;28;20484;-71
2023/08/17 15:53:48;;;;;;;2.30;2.10;;;;;;;;;;6259259;28;20502;-74
2023/08/17 15:56:52;;;;;;;2.47;2.38;;;;;;;;;;6260195;28;20298;-74
2023/08/17 15:59:55;;;;;;;2.53;2.13;;;;;;;;;;6258975;28;20375;-73
2023/08/17 16:03:01;;;;;;;9.75;2.30;;;;;;;;;;6259663;28;20295;-72
2023/08/17 16:06:05;;;;;;;4.43;2.40;;;;;;;;;;6261245;28;20310;-71
2023/08/17 16:09:09;;;;;;;2.42;1.90;;;;;;;;;;6262899;28;20299;-71
2023/08/17 16:12:13;;;;;;;7.13;2.25;;;;;;;;;;6261165;28;20295;-71
2023/08/17 16:15:17;;;;;;;2.55;1.98;;;;;;;;;;6260289;28;20295;-70
2023/08/17 16:18:22;;;;;;;1.80;1.65;;;;;;;;;;6261739;28;20301;-74
2023/08/17 16:21:26;;;;;;;3.38;1.90;;;;;;;;;;6263622;28;20369;-74
2023/08/17 16:24:29;;;;;;;2.67;1.80;;;;;;;;;;6261465;28;20304;-72
2023/08/17 16:27:33;;;;;;;2.17;1.92;;;;;;;;;;6261835;28;20272;-73
2023/08/17 16:30:41;;;;;;;5.05;2.30;;;;;;;;;;6259945;28;20625;-73
2023/08/17 16:33:46;;;;;;;7.03;2.00;;;;;;;;;;6260592;28;20288;-74
2023/08/17 16:36:50;;;;;;;4.05;1.80;;;;;;;;;;6262163;28;20236;-69
2023/08/17 16:39:54;;;;;;;2.97;1.58;;;;;;;;;;6264970;28;20307;-75
2023/08/17 16:42:58;;;;;;;2.30;2.00;;;;;;;;;;6264029;28;20583;-72
2023/08/17 16:46:03;;;;;;;6.00;2.05;;;;;;;;;;6264236;28;20299;-72
2023/08/17 16:49:09;;;;;;;2.00;1.90;;;;;;;;;;6262737;28;20292;-71
2023/08/17 16:52:12;;;;;;;2.10;1.90;;;;;;;;;;6263688;28;20292;-72
2023/08/17 16:55:17;;;;;;;9.05;2.42;;;;;;;;;;6260470;28;20574;-72
2023/08/17 16:58:21;;;;;;;2.08;1.70;;;;;;;;;;6263603;28;20291;-74
2023/08/17 17:01:26;;;;;;;2.20;1.80;;;;;;;;;;6263654;28;20287;-71
2023/08/17 17:04:31;;;;;;;4.97;2.00;;;;;;;;;;6263494;28;20292;-72
2023/08/17 17:07:35;;;;;;;3.83;2.33;;;;;;;;;;6263962;28;20319;-72
2023/08/17 17:10:39;;;;;;;5.97;1.90;;;;;;;;;;6262973;28;20306;-72
2023/08/17 17:13:43;;;;;;;3.10;1.67;;;;;;;;;;6263007;28;20292;-70
2023/08/17 17:16:47;;;;;;;2.60;1.67;;;;;;;;;;6263568;28;20299;-72
2023/08/17 17:19:52;;;;;;;4.05;1.60;;;;;;;;;;6262685;28;20299;-72
2023/08/17 17:22:56;;;;;;;1.65;1.55;;;;;;;;;;6262542;28;20315;-72
2023/08/17 17:26:07;;;;;;;1.90;1.80;;;;;;;;;;6263384;28;20323;-73
2023/08/17 17:29:11;;;;;;;3.42;1.83;;;;;;;;;;6262770;28;20696;-70
2023/08/17 17:32:15;;;;;;;4.40;2.03;;;;;;;;;;6264015;28;20299;-71
2023/08/17 17:35:20;;;;;;;4.15;1.85;;;;;;;;;;6262804;28;20303;-72
2023/08/17 17:38:24;;;;;;;2.33;2.22;;;;;;;;;;6262736;28;20287;-73
2023/08/17 17:41:28;;;;;;;3.95;2.15;;;;;;;;;;6263505;28;20296;-73
2023/08/17 17:44:31;;;;;;;4.60;2.10;;;;;;;;;;6262726;28;20296;-71
2023/08/17 17:47:35;;;;;;;2.28;1.90;;;;;;;;;;6263221;28;20442;-72
2023/08/17 17:50:41;;;;;;;1.90;1.67;;;;;;;;;;6261695;28;20300;-72
2023/08/17 17:53:44;;;;;;;4.10;1.70;;;;;;;;;;6263295;28;20291;-72
2023/08/17 17:56:49;;;;;;;2.35;1.85;;;;;;;;;;6263141;28;20295;-73
2023/08/17 17:59:54;;;;;;;3.53;1.80;;;;;;;;;;6261481;28;20474;-73
2023/08/17 18:03:09;;;;;;;7.20;2.30;;;;;;;;;;6263373;28;20292;-74
2023/08/17 18:06:15;;;;;;;2.78;1.90;;;;;;;;;;6263172;28;20296;-72
2023/08/17 18:09:19;;;;;;;4.45;1.95;;;;;;;;;;6262433;28;20296;-73
2023/08/17 18:12:22;;;;;;;7.32;2.60;;;;;;;;;;6262871;28;20479;-74
2023/08/17 18:15:26;;;;;;;2.17;2.03;;;;;;;;;;6262715;28;20359;-72
2023/08/17 18:18:32;;;;;;;3.15;2.60;;;;;;;;;;6262483;28;20287;-72
2023/08/17 18:21:37;;;;;;;3.47;2.40;;;;;;;;;;6262225;28;20271;-72
2023/08/17 18:24:41;;;;;;;2.88;2.00;;;;;;;;;;6262315;28;20547;-71
2023/08/17 18:27:45;;;;;;;12.50;3.83;;;;;;;;;;6261110;28;20462;-72
2023/08/17 18:30:48;;;;;;;6.10;3.03;;;;;;;;;;6262158;28;20580;-72